createdAt,value
2019-01-19T00:02:09.945Z,5.30
2019-01-19T00:05:36.812Z,5.30
2019-01-19T00:08:29.584Z,5.20
2019-01-19T00:11:51.667Z,5.33
2019-01-19T00:14:29.398Z,5.10
2019-01-19T00:17:53.496Z,6.10
2019-01-19T00:21:16.332Z,4.60
2019-01-19T00:24:26.979Z,5.23
2019-01-19T00:27:45.199Z,7.03
2019-01-19T00:30:33.096Z,5.87
2019-01-19T00:33:35.562Z,5.70
2019-01-19T00:36:43.033Z,5.90
2019-01-19T00:39:29.968Z,6.50
2019-01-19T00:42:31.020Z,5.70
2019-01-19T00:45:29.615Z,5.60
2019-01-19T00:48:18.660Z,6.30
2019-01-19T00:51:25.928Z,5.20
2019-01-19T00:54:08.295Z,5.63
2019-01-19T00:57:18.463Z,5.57
2019-01-19T00:59:49.770Z,5.57
2019-01-19T01:02:54.394Z,5.00
2019-01-19T01:05:36.827Z,5.20
2019-01-19T01:08:39.144Z,4.73
2019-01-19T01:11:21.465Z,5.27
2019-01-19T01:14:39.439Z,4.53
2019-01-19T01:17:38.053Z,4.53
2019-01-19T01:20:36.952Z,5.83
2019-01-19T01:23:26.507Z,4.80
2019-01-19T01:26:33.960Z,5.00
2019-01-19T01:29:53.833Z,4.80
2019-01-19T01:32:51.139Z,5.40
2019-01-19T01:35:49.035Z,4.80
2019-01-19T01:38:46.607Z,5.93
2019-01-19T01:42:04.454Z,7.90
2019-01-19T01:45:31.469Z,6.40
2019-01-19T01:48:34.282Z,4.70
2019-01-19T01:51:22.072Z,4.87
2019-01-19T01:54:01.016Z,4.63
2019-01-19T01:56:28.245Z,4.50
2019-01-19T01:59:23.799Z,5.07
2019-01-19T02:02:34.617Z,5.00
2019-01-19T02:05:40.623Z,4.70
2019-01-19T02:08:51.344Z,4.60
2019-01-19T02:11:49.356Z,4.43
2019-01-19T02:14:56.957Z,4.33
2019-01-19T02:18:14.433Z,4.80
2019-01-19T02:21:08.199Z,4.47
2019-01-19T02:24:12.845Z,4.67
2019-01-19T02:27:30.350Z,4.23
2019-01-19T02:30:35.486Z,4.67
2019-01-19T02:33:44.126Z,4.40
2019-01-19T02:36:17.372Z,5.43
2019-01-19T02:39:31.915Z,5.00
2019-01-19T02:42:43.902Z,3.90
2019-01-19T02:45:33.245Z,5.70
2019-01-19T02:49:00.081Z,5.23
2019-01-19T02:51:56.973Z,3.93
2019-01-19T02:55:06.177Z,4.20
2019-01-19T02:57:59.908Z,5.73
2019-01-19T03:01:11.593Z,4.30
2019-01-19T03:04:14.100Z,5.20
2019-01-19T03:07:20.504Z,4.87
2019-01-19T03:09:59.040Z,4.60
2019-01-19T03:12:50.009Z,4.23
2019-01-19T03:15:58.912Z,4.47
2019-01-19T03:18:56.344Z,4.50
2019-01-19T03:22:05.318Z,4.10
2019-01-19T03:24:52.925Z,4.53
2019-01-19T03:27:37.048Z,4.40
2019-01-19T03:30:35.206Z,4.27
2019-01-19T03:33:38.795Z,4.40
2019-01-19T03:36:46.387Z,4.80
2019-01-19T03:40:10.751Z,5.10
2019-01-19T03:43:15.707Z,6.50
2019-01-19T03:46:32.127Z,5.60
2019-01-19T03:49:42.990Z,5.37
2019-01-19T03:52:40.043Z,4.13
2019-01-19T03:55:55.034Z,4.70
2019-01-19T03:58:57.738Z,4.83
2019-01-19T04:01:50.342Z,5.07
2019-01-19T04:05:04.766Z,5.00
2019-01-19T04:08:01.065Z,4.80
2019-01-19T04:10:44.420Z,5.23
2019-01-19T04:14:04.185Z,5.10
2019-01-19T04:17:26.388Z,4.60
2019-01-19T04:20:49.072Z,4.43
2019-01-19T04:23:16.590Z,3.80
2019-01-19T04:25:56.988Z,4.47
2019-01-19T04:28:25.823Z,4.50
2019-01-19T04:30:53.027Z,4.47
2019-01-19T04:33:20.179Z,5.00
2019-01-19T04:35:47.303Z,4.40
2019-01-19T04:38:14.457Z,4.27
2019-01-19T04:40:41.646Z,4.57
2019-01-19T04:43:08.859Z,4.00
2019-01-19T04:45:36.330Z,4.50
2019-01-19T04:48:03.534Z,4.10
2019-01-19T04:50:30.631Z,4.20
2019-01-19T04:52:57.780Z,3.93
2019-01-19T04:55:24.867Z,4.10
2019-01-19T04:57:52.217Z,4.43
2019-01-19T05:00:19.356Z,4.37
2019-01-19T05:02:46.506Z,3.60
2019-01-19T05:05:13.989Z,5.47
2019-01-19T05:07:41.136Z,4.17
2019-01-19T05:10:08.494Z,5.07
2019-01-19T05:12:36.282Z,3.40
2019-01-19T05:15:06.938Z,3.60
2019-01-19T05:17:34.120Z,3.63
2019-01-19T05:20:01.416Z,4.30
2019-01-19T05:22:28.690Z,4.20
2019-01-19T05:24:55.868Z,3.70
2019-01-19T05:27:23.044Z,4.03
2019-01-19T05:29:50.234Z,5.17
2019-01-19T05:32:17.405Z,4.63
2019-01-19T05:34:44.694Z,4.97
2019-01-19T05:37:12.158Z,4.03
2019-01-19T05:39:39.340Z,4.17
2019-01-19T05:42:06.791Z,5.30
2019-01-19T05:44:34.027Z,4.20
2019-01-19T05:47:01.240Z,4.43
2019-01-19T05:49:28.689Z,4.13
2019-01-19T05:51:56.493Z,3.30
2019-01-19T05:54:23.727Z,4.53
2019-01-19T05:56:50.821Z,3.60
2019-01-19T05:59:18.000Z,3.77
2019-01-19T06:01:45.082Z,3.57
2019-01-19T06:04:12.279Z,4.40
2019-01-19T06:06:46.569Z,4.20
2019-01-19T06:09:08.625Z,4.00
2019-01-19T06:11:35.848Z,3.80
2019-01-19T06:14:03.242Z,3.40
2019-01-19T06:16:30.430Z,7.10
2019-01-19T06:18:58.212Z,3.07
2019-01-19T06:21:29.253Z,4.27
2019-01-19T06:23:56.426Z,3.43
2019-01-19T06:26:23.977Z,3.90
2019-01-19T06:28:51.184Z,3.70
2019-01-19T06:31:18.369Z,4.20
2019-01-19T06:33:45.531Z,3.80
2019-01-19T06:36:12.698Z,3.70
2019-01-19T06:38:39.784Z,3.43
2019-01-19T06:41:07.022Z,3.30
2019-01-19T06:43:34.075Z,3.50
2019-01-19T06:46:01.282Z,4.13
2019-01-19T06:48:28.467Z,4.20
2019-01-19T06:50:55.889Z,3.83
2019-01-19T06:53:23.047Z,4.10
2019-01-19T06:55:50.284Z,4.07
2019-01-19T06:58:17.454Z,3.63
2019-01-19T07:00:44.653Z,4.00
2019-01-19T07:03:12.157Z,3.80
2019-01-19T07:05:39.219Z,3.70
2019-01-19T07:08:06.431Z,4.60
2019-01-19T07:10:33.846Z,4.53
2019-01-19T07:13:01.017Z,3.43
2019-01-19T07:15:28.264Z,3.47
2019-01-19T07:17:55.399Z,4.00
2019-01-19T07:20:27.422Z,3.27
2019-01-19T07:22:54.615Z,3.00
2019-01-19T07:25:21.826Z,3.73
2019-01-19T07:27:48.987Z,4.20
2019-01-19T07:30:16.279Z,3.37
2019-01-19T07:32:43.735Z,3.93
2019-01-19T07:35:11.045Z,4.97
2019-01-19T07:37:38.199Z,4.10
2019-01-19T07:40:07.174Z,4.80
2019-01-19T07:42:35.231Z,4.83
2019-01-19T07:45:02.864Z,4.10
2019-01-19T07:47:30.273Z,4.63
2019-01-19T07:49:57.457Z,4.87
2019-01-19T07:52:24.933Z,3.73
2019-01-19T07:54:52.206Z,4.20
2019-01-19T07:57:19.368Z,4.07
2019-01-19T07:59:46.542Z,3.77
2019-01-19T08:02:13.640Z,4.40
2019-01-19T08:04:41.131Z,3.70
2019-01-19T08:07:08.239Z,3.20
2019-01-19T08:09:35.444Z,3.20
2019-01-19T08:12:02.663Z,3.10
2019-01-19T08:14:29.845Z,3.43
2019-01-19T08:16:57.219Z,3.43
2019-01-19T08:19:24.395Z,3.60
2019-01-19T08:21:51.594Z,4.00
2019-01-19T08:24:18.781Z,3.67
2019-01-19T08:26:46.026Z,3.70
2019-01-19T08:29:13.204Z,3.30
2019-01-19T08:31:40.452Z,3.70
2019-01-19T08:34:07.604Z,2.70
2019-01-19T08:36:34.779Z,3.77
2019-01-19T08:39:03.240Z,4.10
2019-01-19T08:41:30.404Z,3.10
2019-01-19T08:44:00.198Z,3.47
2019-01-19T08:46:27.432Z,3.57
2019-01-19T08:48:54.498Z,3.70
2019-01-19T08:51:21.703Z,3.10
2019-01-19T08:53:48.819Z,3.50
2019-01-19T08:56:16.256Z,3.60
2019-01-19T08:58:43.706Z,3.43
2019-01-19T09:01:10.909Z,3.57
2019-01-19T09:03:38.073Z,3.77
2019-01-19T09:06:05.265Z,3.00
2019-01-19T09:08:32.703Z,3.13
2019-01-19T09:10:59.962Z,3.53
2019-01-19T09:13:27.128Z,3.30
2019-01-19T09:15:59.700Z,3.60
2019-01-19T09:18:26.980Z,3.40
2019-01-19T09:20:54.173Z,2.87
2019-01-19T09:23:25.993Z,2.83
2019-01-19T09:25:53.190Z,3.40
2019-01-19T09:28:20.377Z,3.00
2019-01-19T09:30:47.477Z,2.80
2019-01-19T09:33:14.555Z,3.37
2019-01-19T09:35:41.649Z,3.10
2019-01-19T09:38:12.324Z,3.23
2019-01-19T09:40:39.841Z,3.83
2019-01-19T09:43:12.808Z,3.50
2019-01-19T09:45:40.524Z,3.60
2019-01-19T09:48:11.327Z,2.93
2019-01-19T09:50:39.325Z,3.40
2019-01-19T09:53:06.810Z,3.77
2019-01-19T09:55:33.984Z,3.20
2019-01-19T09:58:01.172Z,3.63
2019-01-19T10:00:35.483Z,3.80
2019-01-19T10:02:57.784Z,3.50
2019-01-19T10:05:25.011Z,3.23
2019-01-19T10:07:52.386Z,3.63
2019-01-19T10:10:19.661Z,3.53
2019-01-19T10:12:46.804Z,2.97
2019-01-19T10:15:14.668Z,2.97
2019-01-19T10:17:41.720Z,3.60
2019-01-19T10:20:11.834Z,3.43
2019-01-19T10:22:39.364Z,3.30
2019-01-19T10:25:08.040Z,3.17
2019-01-19T10:27:37.448Z,3.23
2019-01-19T10:30:07.379Z,3.50
2019-01-19T10:32:34.637Z,3.40
2019-01-19T10:35:02.039Z,3.27
2019-01-19T10:37:29.218Z,3.87
2019-01-19T10:39:56.409Z,3.70
2019-01-19T10:42:23.587Z,3.00
2019-01-19T10:44:50.843Z,3.77
2019-01-19T10:47:18.022Z,3.80
2019-01-19T10:49:45.218Z,3.70
2019-01-19T10:52:12.448Z,4.53
2019-01-19T10:54:39.619Z,4.40
2019-01-19T10:57:06.848Z,3.97
2019-01-19T10:59:33.915Z,4.80
2019-01-19T11:02:02.585Z,4.03
2019-01-19T11:04:29.722Z,4.63
2019-01-19T11:06:56.932Z,4.47
2019-01-19T11:09:24.111Z,3.33
2019-01-19T11:11:51.607Z,4.27
2019-01-19T11:14:18.818Z,4.43
2019-01-19T11:16:45.986Z,4.10
2019-01-19T11:19:13.165Z,3.53
2019-01-19T11:21:40.378Z,3.87
2019-01-19T11:24:07.800Z,4.03
2019-01-19T11:26:34.962Z,4.33
2019-01-19T11:29:02.492Z,4.50
2019-01-19T11:31:29.660Z,5.20
2019-01-19T11:33:56.831Z,4.47
2019-01-19T11:36:24.057Z,4.13
2019-01-19T11:38:51.254Z,3.83
2019-01-19T11:41:18.572Z,4.00
2019-01-19T11:43:45.812Z,4.67
2019-01-19T11:46:12.870Z,4.63
2019-01-19T11:48:40.032Z,4.50
2019-01-19T11:51:07.259Z,3.60
2019-01-19T11:53:34.799Z,3.80
2019-01-19T11:56:01.971Z,4.13
2019-01-19T11:58:29.185Z,4.57
2019-01-19T12:00:56.343Z,3.70
2019-01-19T12:03:23.457Z,3.90
2019-01-19T12:05:50.813Z,4.60
2019-01-19T12:08:19.649Z,4.40
2019-01-19T12:10:47.094Z,4.37
2019-01-19T12:13:14.320Z,4.20
2019-01-19T12:15:41.494Z,3.53
2019-01-19T12:18:08.685Z,3.93
2019-01-19T12:20:41.086Z,3.97
2019-01-19T12:23:08.851Z,4.63
2019-01-19T12:25:36.036Z,4.17
2019-01-19T12:28:03.177Z,3.97
2019-01-19T12:30:30.551Z,5.07
2019-01-19T12:32:57.627Z,4.70
2019-01-19T12:35:24.820Z,3.40
2019-01-19T12:37:52.091Z,4.07
2019-01-19T12:40:20.563Z,4.53
2019-01-19T12:42:49.883Z,3.30
2019-01-19T12:45:38.221Z,3.13
2019-01-19T12:48:05.313Z,4.00
2019-01-19T12:50:32.610Z,4.10
2019-01-19T12:52:59.802Z,4.13
2019-01-19T12:55:27.067Z,4.50
2019-01-19T12:57:54.240Z,4.50
2019-01-19T13:00:23.296Z,3.47
2019-01-19T13:02:50.745Z,4.77
2019-01-19T13:05:42.045Z,4.47
2019-01-19T13:08:11.647Z,3.73
2019-01-19T13:10:42.804Z,4.93
2019-01-19T13:13:21.732Z,3.90
2019-01-19T13:16:23.771Z,4.10
2019-01-19T13:19:25.215Z,3.90
2019-01-19T13:22:27.688Z,3.50
2019-01-19T13:25:29.562Z,3.40
2019-01-19T13:28:42.711Z,3.60
2019-01-19T13:31:41.319Z,3.20
2019-01-19T13:34:45.710Z,3.43
2019-01-19T13:37:52.043Z,3.63
2019-01-19T13:41:10.412Z,3.40
2019-01-19T13:44:20.698Z,3.40
2019-01-19T13:47:51.115Z,4.03
2019-01-19T13:50:48.677Z,3.23
2019-01-19T13:54:00.464Z,3.30
2019-01-19T13:56:40.991Z,3.20
2019-01-19T13:59:28.636Z,3.93
2019-01-19T14:02:39.768Z,3.20
2019-01-19T14:05:45.950Z,3.40
2019-01-19T14:08:52.158Z,3.10
2019-01-19T14:12:00.139Z,3.30
2019-01-19T14:14:41.720Z,3.47
2019-01-19T14:17:39.097Z,2.93
2019-01-19T14:20:42.311Z,2.57
2019-01-19T14:23:31.200Z,2.83
2019-01-19T14:26:25.345Z,2.77
2019-01-19T14:29:34.073Z,2.90
2019-01-19T14:32:13.541Z,3.60
2019-01-19T14:34:56.341Z,3.20
2019-01-19T14:38:10.200Z,3.30
2019-01-19T14:41:18.258Z,3.00
2019-01-19T14:44:27.161Z,2.77
2019-01-19T14:47:16.259Z,2.63
2019-01-19T14:50:37.336Z,2.57
2019-01-19T14:54:10.283Z,2.10
2019-01-19T14:57:01.262Z,2.90
2019-01-19T15:00:07.333Z,2.40
2019-01-19T15:03:22.418Z,2.53
2019-01-19T15:06:22.975Z,2.23
2019-01-19T15:09:03.962Z,2.83
2019-01-19T15:12:24.319Z,2.80
2019-01-19T15:15:39.536Z,2.93
2019-01-19T15:18:36.499Z,2.40
2019-01-19T15:21:40.516Z,2.90
2019-01-19T15:24:38.205Z,2.90
2019-01-19T15:27:49.852Z,3.10
2019-01-19T15:30:32.659Z,2.33
2019-01-19T15:33:25.996Z,2.60
2019-01-19T15:36:05.557Z,2.47
2019-01-19T15:39:26.820Z,2.50
2019-01-19T15:42:38.602Z,2.70
2019-01-19T15:45:29.782Z,2.83
2019-01-19T15:48:34.891Z,2.43
2019-01-19T15:52:00.253Z,1.87
2019-01-19T15:54:53.899Z,1.80
2019-01-19T15:58:14.863Z,2.00
2019-01-19T16:01:15.399Z,2.13
2019-01-19T16:04:14.308Z,1.80
2019-01-19T16:07:10.700Z,2.10
2019-01-19T16:10:08.905Z,1.90
2019-01-19T16:13:07.465Z,1.97
2019-01-19T16:16:01.696Z,2.33
2019-01-19T16:19:18.079Z,1.90
2019-01-19T16:22:45.073Z,2.30
2019-01-19T16:26:11.491Z,2.27
2019-01-19T16:29:23.757Z,2.20
2019-01-19T16:32:25.624Z,2.30
2019-01-19T16:35:34.710Z,2.30
2019-01-19T16:38:37.991Z,2.10
2019-01-19T16:41:47.218Z,2.67
2019-01-19T16:44:54.020Z,2.60
2019-01-19T16:47:42.338Z,2.33
2019-01-19T16:50:51.345Z,2.53
2019-01-19T16:53:47.989Z,2.73
2019-01-19T16:56:59.630Z,2.30
2019-01-19T16:59:57.823Z,2.87
2019-01-19T17:02:58.051Z,3.40
2019-01-19T17:05:57.525Z,2.77
2019-01-19T17:09:10.119Z,5.60
2019-01-19T17:12:15.571Z,3.00
2019-01-19T17:15:26.131Z,2.90
2019-01-19T17:18:40.482Z,2.97
2019-01-19T17:22:03.301Z,3.10
2019-01-19T17:24:54.876Z,2.70
2019-01-19T17:28:16.239Z,3.23
2019-01-19T17:31:10.094Z,3.13
2019-01-19T17:34:00.763Z,3.97
2019-01-19T17:36:43.364Z,3.70
2019-01-19T17:40:06.609Z,3.73
2019-01-19T17:43:25.894Z,3.10
2019-01-19T17:46:16.363Z,3.07
2019-01-19T17:49:11.731Z,2.87
2019-01-19T17:52:23.908Z,3.17
2019-01-19T17:55:34.329Z,3.30
2019-01-19T17:58:37.158Z,3.03
2019-01-19T18:01:31.409Z,3.80
2019-01-19T18:04:27.318Z,3.70
2019-01-19T18:07:07.510Z,3.30
2019-01-19T18:10:09.629Z,3.50
2019-01-19T18:13:03.703Z,3.53
2019-01-19T18:16:16.004Z,3.27
2019-01-19T18:19:37.809Z,3.10
2019-01-19T18:22:54.616Z,3.23
2019-01-19T18:26:02.987Z,3.90
2019-01-19T18:28:45.375Z,3.70
2019-01-19T18:31:46.736Z,3.17
2019-01-19T18:34:29.578Z,4.60
2019-01-19T18:37:26.587Z,4.07
2019-01-19T18:40:15.587Z,3.90
2019-01-19T18:43:22.697Z,3.70
2019-01-19T18:46:24.777Z,4.10
2019-01-19T18:49:34.729Z,3.70
2019-01-19T18:52:45.129Z,3.47
2019-01-19T18:55:42.004Z,3.97
2019-01-19T18:58:45.669Z,4.03
2019-01-19T19:01:54.934Z,3.90
2019-01-19T19:05:08.769Z,4.07
2019-01-19T19:08:31.299Z,3.37
2019-01-19T19:11:31.223Z,4.60
2019-01-19T19:14:24.755Z,4.80
2019-01-19T19:17:35.092Z,3.57
2019-01-19T19:20:22.338Z,2.93
2019-01-19T19:23:14.461Z,3.70
2019-01-19T19:26:19.300Z,3.47
2019-01-19T19:29:16.781Z,2.80
2019-01-19T19:32:27.765Z,3.43
2019-01-19T19:35:33.979Z,3.50
2019-01-19T19:38:50.449Z,4.30
2019-01-19T19:41:47.475Z,3.93
2019-01-19T19:44:50.777Z,4.03
2019-01-19T19:48:23.767Z,4.10
2019-01-19T19:51:29.021Z,4.10
2019-01-19T19:53:56.127Z,3.47
2019-01-19T19:56:22.314Z,3.60
2019-01-19T19:58:49.550Z,3.20
2019-01-19T20:01:17.050Z,3.63
2019-01-19T20:03:44.270Z,2.83
2019-01-19T20:06:11.501Z,3.53
2019-01-19T20:08:38.696Z,3.13
2019-01-19T20:11:05.882Z,3.13
2019-01-19T20:13:33.105Z,3.20
2019-01-19T20:16:00.278Z,3.57
2019-01-19T20:18:27.474Z,3.27
2019-01-19T20:20:54.573Z,3.93
2019-01-19T20:23:21.812Z,3.90
2019-01-19T20:25:49.252Z,3.60
2019-01-19T20:28:16.457Z,3.73
2019-01-19T20:30:43.633Z,3.80
2019-01-19T20:33:10.799Z,3.07
2019-01-19T20:35:37.924Z,3.70
2019-01-19T20:38:07.675Z,3.63
2019-01-19T20:40:34.857Z,4.00
2019-01-19T20:43:02.064Z,3.97
2019-01-19T20:45:29.268Z,4.07
2019-01-19T20:47:56.386Z,3.00
2019-01-19T20:50:23.585Z,3.30
2019-01-19T20:52:50.808Z,5.07
2019-01-19T20:55:17.989Z,4.70
2019-01-19T20:57:45.261Z,4.60
2019-01-19T21:00:16.136Z,4.97
2019-01-19T21:02:43.889Z,4.33
2019-01-19T21:05:11.107Z,4.40
2019-01-19T21:07:38.259Z,4.60
2019-01-19T21:10:05.573Z,4.40
2019-01-19T21:12:32.762Z,4.77
2019-01-19T21:14:59.872Z,5.07
2019-01-19T21:17:31.696Z,5.73
2019-01-19T21:19:59.030Z,5.33
2019-01-19T21:22:26.225Z,4.60
2019-01-19T21:24:53.418Z,3.77
2019-01-19T21:27:20.637Z,4.23
2019-01-19T21:29:47.872Z,4.37
2019-01-19T21:32:15.087Z,4.77
2019-01-19T21:34:42.347Z,3.77
2019-01-19T21:37:09.524Z,4.60
2019-01-19T21:39:36.752Z,4.37
2019-01-19T21:42:04.067Z,4.53
2019-01-19T21:44:31.220Z,4.17
2019-01-19T21:46:58.413Z,4.67
2019-01-19T21:49:25.614Z,4.90
2019-01-19T21:51:52.683Z,4.30
2019-01-19T21:54:19.861Z,4.60
2019-01-19T21:56:46.998Z,4.53
2019-01-19T21:59:14.215Z,4.13
2019-01-19T22:01:41.427Z,5.07
2019-01-19T22:04:08.608Z,4.73
2019-01-19T22:06:35.778Z,5.10
2019-01-19T22:09:05.553Z,4.87
2019-01-19T22:11:33.005Z,4.57
2019-01-19T22:14:00.224Z,4.77
2019-01-19T22:16:27.726Z,4.80
2019-01-19T22:18:54.936Z,4.43
2019-01-19T22:21:22.127Z,4.53
2019-01-19T22:23:49.254Z,5.60
2019-01-19T22:26:18.853Z,4.57
2019-01-19T22:28:46.131Z,4.77
2019-01-19T22:31:13.324Z,4.83
2019-01-19T22:33:40.535Z,5.10
2019-01-19T22:36:07.703Z,4.50
2019-01-19T22:38:34.833Z,5.60
2019-01-19T22:41:02.023Z,4.70
2019-01-19T22:43:31.101Z,5.30
2019-01-19T22:45:58.312Z,4.57
2019-01-19T22:48:25.502Z,5.00
2019-01-19T22:50:52.635Z,4.50
2019-01-19T22:53:20.094Z,4.77
2019-01-19T22:55:47.374Z,4.30
2019-01-19T22:58:14.586Z,4.73
2019-01-19T23:01:07.498Z,4.80
2019-01-19T23:03:36.001Z,6.13
2019-01-19T23:06:03.438Z,5.43
2019-01-19T23:08:30.655Z,6.07
2019-01-19T23:11:01.362Z,5.37
2019-01-19T23:13:27.170Z,5.03
2019-01-19T23:15:54.638Z,5.07
2019-01-19T23:18:21.828Z,4.60
2019-01-19T23:20:49.042Z,4.90
2019-01-19T23:23:16.232Z,4.93
2019-01-19T23:25:43.297Z,5.73
2019-01-19T23:28:10.489Z,5.97
2019-01-19T23:30:37.603Z,6.07
2019-01-19T23:33:05.072Z,5.70
2019-01-19T23:35:32.165Z,6.27
2019-01-19T23:37:59.363Z,5.30
2019-01-19T23:40:26.536Z,5.23
2019-01-19T23:42:53.729Z,6.20
2019-01-19T23:45:20.933Z,5.47
2019-01-19T23:47:48.026Z,5.97
2019-01-19T23:50:15.219Z,5.30
2019-01-19T23:52:42.711Z,6.53
2019-01-19T23:55:10.531Z,6.10
2019-01-19T23:57:37.733Z,6.03
